Time;durP1;ratioP1;P1;durP2;ratioP2;P2;SDS_P1;SDS_P2;PMS_P1;PMS_P2;Temp;Humidity;BMP_temperature;BMP_pressure;BME280_temperature;BME280_humidity;BME280_pressure;Samples;Min_cycle;Max_cycle;Signal;HPM_P1;HPM_P2
2022/08/17 00:01:54;;;;;;;1.90;1.80;;;;;;;21.50;60.80;94939.47;4376506;32;20217;-60
2022/08/17 00:04:20;;;;;;;1.20;1.20;;;;;;;21.50;60.99;94940.25;4368616;32;20203;-60
2022/08/17 00:06:46;;;;;;;1.50;1.40;;;;;;;21.50;61.52;94944.88;4378765;32;20216;-60
2022/08/17 00:09:12;;;;;;;1.47;1.47;;;;;;;21.48;61.52;94947.16;4374497;32;20207;-60
2022/08/17 00:11:40;;;;;;;1.47;1.37;;;;;;;21.39;61.46;94939.41;4366371;32;20264;-60
2022/08/17 00:14:08;;;;;;;1.43;1.33;;;;;;;21.40;61.83;94948.28;4382451;32;20193;-60
2022/08/17 00:16:37;;;;;;;1.13;1.13;;;;;;;21.51;61.39;94939.13;4381393;32;20205;-60
2022/08/17 00:19:06;;;;;;;1.93;1.33;;;;;;;21.45;61.44;94929.78;4368043;32;20189;-60
2022/08/17 00:21:35;;;;;;;3.80;1.60;;;;;;;21.42;61.50;94927.84;4378369;32;20196;-60
2022/08/17 00:24:00;;;;;;;1.57;1.50;;;;;;;21.36;62.22;94929.34;4384043;32;20185;-60
2022/08/17 00:26:26;;;;;;;0.83;0.83;;;;;;;21.43;62.02;94928.59;4378721;32;20226;-60
2022/08/17 00:28:52;;;;;;;1.40;1.40;;;;;;;21.43;61.65;94924.00;4380938;32;20203;-60
2022/08/17 00:31:19;;;;;;;2.83;2.10;;;;;;;21.33;62.45;94921.19;4369314;32;20193;-62
2022/08/17 00:33:44;;;;;;;1.77;1.67;;;;;;;21.21;62.18;94912.22;4379087;32;20277;-60
2022/08/17 00:36:11;;;;;;;1.10;0.80;;;;;;;21.33;62.12;94915.81;4375313;32;20180;-60
2022/08/17 00:38:37;;;;;;;1.07;1.07;;;;;;;21.47;61.80;94910.53;4386822;32;20181;-60
2022/08/17 00:41:27;;;;;;;1.50;1.40;;;;;;;21.42;61.81;94916.25;4380850;32;20226;-60
2022/08/17 00:43:59;;;;;;;1.07;1.07;;;;;;;21.33;62.08;94911.19;4378015;32;20195;-60
2022/08/17 00:46:32;;;;;;;1.40;1.40;;;;;;;21.46;61.43;94909.75;4386716;32;20247;-60
2022/08/17 00:48:58;;;;;;;0.73;0.73;;;;;;;21.41;61.70;94912.00;4371356;32;20185;-60
2022/08/17 00:51:36;;;;;;;1.53;1.53;;;;;;;21.33;61.94;94907.72;4368106;32;20219;-60
2022/08/17 00:54:17;;;;;;;1.20;1.20;;;;;;;21.40;61.78;94913.97;4376344;32;20276;-60
2022/08/17 00:57:17;;;;;;;0.90;0.90;;;;;;;21.29;61.93;94907.69;4365862;32;20245;-60
2022/08/17 00:59:47;;;;;;;2.03;1.93;;;;;;;21.24;61.61;94906.09;4369989;32;20208;-60
2022/08/17 01:02:15;;;;;;;1.57;1.10;;;;;;;21.26;61.51;94900.31;4369353;32;20194;-60
2022/08/17 01:04:43;;;;;;;0.57;0.57;;;;;;;21.28;61.95;94895.31;4383733;32;20230;-60
2022/08/17 01:07:10;;;;;;;1.23;1.23;;;;;;;21.22;61.56;94904.91;4376489;32;20188;-60
2022/08/17 01:09:36;;;;;;;0.50;0.50;;;;;;;21.14;61.13;94895.94;4383422;32;20189;-61
2022/08/17 01:12:05;;;;;;;1.27;1.27;;;;;;;21.14;62.50;94901.34;4373508;32;20183;-60
2022/08/17 01:14:31;;;;;;;1.00;1.00;;;;;;;21.08;62.24;94893.94;4378970;32;20219;-60
2022/08/17 01:16:56;;;;;;;1.10;1.10;;;;;;;21.04;62.97;94904.69;4373100;32;20186;-60
2022/08/17 01:19:25;;;;;;;0.60;0.60;;;;;;;21.06;62.56;94894.31;4380016;32;20193;-60
2022/08/17 01:22:07;;;;;;;1.00;1.00;;;;;;;21.01;62.76;94891.16;4378830;32;20230;-60
2022/08/17 01:24:35;;;;;;;2.20;1.43;;;;;;;20.96;62.97;94897.69;4383909;32;20220;-60
2022/08/17 01:27:02;;;;;;;2.07;1.67;;;;;;;20.89;62.73;94897.59;4374225;32;20233;-60
2022/08/17 01:29:32;;;;;;;1.13;1.13;;;;;;;20.90;62.80;94901.87;4387806;32;20195;-60
2022/08/17 01:32:01;;;;;;;1.43;1.43;;;;;;;20.95;62.93;94906.94;4380052;32;20180;-60
2022/08/17 01:34:26;;;;;;;0.60;0.60;;;;;;;20.74;64.64;94893.22;4381095;32;20199;-60
2022/08/17 01:36:52;;;;;;;1.10;1.10;;;;;;;20.88;63.40;94896.06;4379760;32;20193;-60
2022/08/17 01:39:28;;;;;;;1.20;1.20;;;;;;;20.97;63.26;94899.25;4374430;32;20238;-60
2022/08/17 01:42:03;;;;;;;0.83;0.83;;;;;;;20.95;63.12;94898.84;4367240;32;20245;-60
2022/08/17 01:44:28;;;;;;;1.10;1.10;;;;;;;20.92;63.76;94902.28;4379396;32;20215;-60
2022/08/17 01:46:54;;;;;;;1.50;1.40;;;;;;;20.79;64.15;94911.75;4365165;32;20177;-60
2022/08/17 01:49:19;;;;;;;6.50;1.67;;;;;;;20.91;63.42;94908.81;4378772;32;20195;-60
2022/08/17 01:51:44;;;;;;;0.93;0.93;;;;;;;21.04;63.08;94904.69;4377550;32;20257;-59
2022/08/17 01:54:13;;;;;;;1.17;1.17;;;;;;;20.92;63.36;94903.06;4385101;32;20236;-59
2022/08/17 01:56:41;;;;;;;2.73;1.63;;;;;;;20.91;63.54;94906.12;4377195;32;20207;-60
2022/08/17 01:59:07;;;;;;;1.33;1.33;;;;;;;20.67;63.51;94896.59;4381307;32;20261;-60
2022/08/17 02:01:33;;;;;;;1.40;1.40;;;;;;;20.85;63.57;94904.88;4370422;32;20181;-60
2022/08/17 02:04:00;;;;;;;1.03;1.03;;;;;;;20.71;63.95;94892.03;4382825;32;20268;-60
2022/08/17 02:06:26;;;;;;;2.27;2.17;;;;;;;20.71;64.25;94888.56;4373606;32;20285;-62
2022/08/17 02:08:51;;;;;;;0.83;0.83;;;;;;;20.77;64.34;94881.69;4377744;32;20188;-60
2022/08/17 02:11:19;;;;;;;1.10;1.10;;;;;;;20.90;64.08;94875.66;4383329;32;20226;-60
2022/08/17 02:13:50;;;;;;;1.70;1.43;;;;;;;20.85;63.19;94886.78;4380275;32;20188;-60
2022/08/17 02:16:15;;;;;;;1.20;1.20;;;;;;;20.80;63.85;94880.94;4367466;32;20193;-60
2022/08/17 02:18:41;;;;;;;1.13;1.13;;;;;;;20.72;63.87;94880.09;4371105;32;20275;-60
2022/08/17 02:21:07;;;;;;;0.93;0.93;;;;;;;20.68;64.96;94881.97;4378143;32;20208;-60
2022/08/17 02:23:36;;;;;;;1.53;1.43;;;;;;;20.66;63.96;94886.19;4373103;32;20191;-61
2022/08/17 02:26:02;;;;;;;1.43;1.43;;;;;;;20.70;64.05;94898.56;4375603;32;20208;-61
2022/08/17 02:28:28;;;;;;;1.13;1.13;;;;;;;20.88;63.76;94898.75;4366811;32;20189;-61
2022/08/17 02:30:56;;;;;;;1.07;1.07;;;;;;;20.83;63.38;94899.06;4365661;32;20251;-61
2022/08/17 02:33:21;;;;;;;1.00;1.00;;;;;;;20.90;64.29;94891.06;4367809;32;20181;-61
2022/08/17 02:35:47;;;;;;;1.60;1.50;;;;;;;20.56;64.26;94893.78;4377504;32;20199;-61
2022/08/17 02:38:13;;;;;;;0.67;0.67;;;;;;;20.64;64.43;94888.47;4385365;32;20197;-61
2022/08/17 02:40:39;;;;;;;1.40;1.33;;;;;;;20.54;63.40;94877.22;4382576;32;20354;-61
2022/08/17 02:43:06;;;;;;;1.60;1.60;;;;;;;20.37;64.10;94877.75;4365837;32;20221;-60
2022/08/17 02:45:32;;;;;;;1.73;1.67;;;;;;;20.37;63.26;94872.34;4379169;32;20184;-61
2022/08/17 02:47:57;;;;;;;1.10;1.10;;;;;;;20.27;63.96;94869.50;4379623;32;20184;-61
2022/08/17 02:50:24;;;;;;;1.50;1.43;;;;;;;19.96;65.33;94863.31;4370357;32;20188;-61
2022/08/17 02:52:51;;;;;;;1.90;1.80;;;;;;;20.09;64.92;94863.91;4383521;32;20197;-61
2022/08/17 02:55:25;;;;;;;0.80;0.80;;;;;;;20.10;65.89;94868.94;4383720;32;20177;-60
2022/08/17 02:57:51;;;;;;;1.27;1.27;;;;;;;20.11;65.99;94864.31;4372184;32;20203;-61
2022/08/17 03:00:27;;;;;;;1.57;1.47;;;;;;;20.33;65.22;94863.44;4379486;32;20184;-61
2022/08/17 03:02:55;;;;;;;0.60;0.60;;;;;;;20.37;65.17;94863.53;4382358;32;20299;-61
2022/08/17 03:05:23;;;;;;;5.70;1.33;;;;;;;20.48;64.53;94861.72;4371519;32;20248;-61
2022/08/17 03:07:48;;;;;;;1.00;1.00;;;;;;;20.35;64.89;94861.16;4379073;32;20260;-62
2022/08/17 03:10:15;;;;;;;1.40;1.40;;;;;;;20.37;65.49;94858.88;4371244;32;20185;-60
2022/08/17 03:12:42;;;;;;;1.90;1.80;;;;;;;20.35;64.15;94855.78;4376895;32;20196;-60
2022/08/17 03:15:16;;;;;;;1.20;1.10;;;;;;;20.40;65.29;94852.00;4381425;32;20187;-60
2022/08/17 03:17:42;;;;;;;1.50;1.50;;;;;;;20.42;65.13;94849.72;4370761;32;20188;-60
2022/08/17 03:20:09;;;;;;;1.20;1.20;;;;;;;20.38;64.55;94849.66;4371257;32;20321;-60
2022/08/17 03:22:37;;;;;;;0.90;0.90;;;;;;;20.30;64.85;94853.41;4373765;32;20189;-60
2022/08/17 03:25:03;;;;;;;0.60;0.60;;;;;;;20.27;65.02;94854.13;4367110;32;20185;-60
2022/08/17 03:27:28;;;;;;;1.20;1.20;;;;;;;20.12;65.46;94850.50;4368771;32;20193;-60
2022/08/17 03:29:54;;;;;;;1.40;1.40;;;;;;;20.13;65.12;94854.72;4386588;32;20188;-60
2022/08/17 03:32:19;;;;;;;1.10;1.10;;;;;;;20.08;65.96;94846.19;4375995;32;20185;-60
2022/08/17 03:34:45;;;;;;;1.17;1.17;;;;;;;20.04;65.02;94851.53;4376120;32;20188;-60
2022/08/17 03:37:11;;;;;;;1.10;1.10;;;;;;;19.90;67.07;94867.50;4381788;32;20197;-60
2022/08/17 03:39:37;;;;;;;2.13;1.93;;;;;;;19.94;66.31;94856.78;4385607;32;20214;-60
2022/08/17 03:42:28;;;;;;;1.27;1.17;;;;;;;20.10;66.67;94858.16;4378644;32;20208;-60
2022/08/17 03:44:56;;;;;;;1.40;1.40;;;;;;;20.13;66.33;94864.72;4363162;32;20215;-60
2022/08/17 03:58:22;;;;;;;0.93;0.93;;;;;;;20.17;66.00;94868.22;4379452;32;20198;-60
2022/08/17 04:00:48;;;;;;;1.23;1.23;;;;;;;20.04;66.16;94883.06;4380412;32;20192;-60
2022/08/17 04:03:14;;;;;;;1.53;1.53;;;;;;;20.30;66.00;94880.34;4371562;32;20193;-60
2022/08/17 04:05:40;;;;;;;1.80;1.13;;;;;;;20.20;66.07;94881.75;4384937;32;20313;-60
2022/08/17 04:08:06;;;;;;;1.70;1.33;;;;;;;20.14;66.02;94879.75;4375480;32;20242;-60
2022/08/17 04:10:32;;;;;;;1.10;1.10;;;;;;;20.29;65.88;94884.19;4371905;32;20319;-60
2022/08/17 04:12:58;;;;;;;1.30;1.30;;;;;;;20.13;66.10;94884.38;4370589;32;20182;-60
2022/08/17 04:15:24;;;;;;;1.13;1.13;;;;;;;19.99;66.73;94886.06;4383859;32;20200;-60
2022/08/17 04:17:50;;;;;;;0.70;0.70;;;;;;;19.98;66.75;94889.91;4377713;32;20193;-60
2022/08/17 04:20:18;;;;;;;0.70;0.70;;;;;;;20.06;66.98;94897.72;4379866;32;20292;-60
2022/08/17 04:22:57;;;;;;;1.73;1.63;;;;;;;19.98;66.42;94904.13;4378775;32;20205;-60
2022/08/17 04:25:22;;;;;;;1.17;1.17;;;;;;;19.72;65.98;94894.16;4371689;32;20193;-60
2022/08/17 04:27:48;;;;;;;0.70;0.70;;;;;;;19.50;66.92;94881.50;4377298;32;20211;-61
2022/08/17 04:30:13;;;;;;;1.30;1.30;;;;;;;19.59;66.74;94884.72;4374550;32;20223;-61
2022/08/17 04:33:10;;;;;;;1.43;1.33;;;;;;;19.74;67.74;94870.34;4366552;32;20200;-61
2022/08/17 04:35:42;;;;;;;1.30;1.20;;;;;;;19.72;68.01;94867.25;4371008;32;20288;-61
2022/08/17 04:38:10;;;;;;;1.37;1.33;;;;;;;19.84;67.32;94869.72;4368588;32;20223;-61
2022/08/17 04:43:22;;;;;;;1.50;1.50;;;;;;;19.93;67.53;94869.47;4367197;32;20219;-61
2022/08/17 04:45:52;;;;;;;1.33;1.30;;;;;;;19.98;66.32;94873.75;4378796;32;20287;-60
2022/08/17 04:48:17;;;;;;;1.17;1.17;;;;;;;20.05;66.89;94873.84;4372602;32;20185;-60
2022/08/17 04:50:45;;;;;;;1.67;1.57;;;;;;;20.05;65.92;94868.47;4362336;32;20192;-60
2022/08/17 04:53:11;;;;;;;0.87;0.87;;;;;;;19.96;66.45;94881.41;4381292;32;20204;-60
2022/08/17 04:55:37;;;;;;;1.77;1.40;;;;;;;20.04;66.61;94874.97;4377961;32;20177;-60
2022/08/17 04:58:04;;;;;;;1.67;1.63;;;;;;;20.00;65.49;94882.22;4373041;32;20196;-61
2022/08/17 05:00:29;;;;;;;1.60;1.50;;;;;;;19.84;67.10;94879.72;4377758;32;20198;-61
2022/08/17 05:02:55;;;;;;;0.83;0.83;;;;;;;19.92;67.40;94870.59;4372741;32;20201;-61
2022/08/17 05:05:24;;;;;;;1.07;1.07;;;;;;;19.85;67.08;94870.50;4374420;32;20200;-61
2022/08/17 05:07:51;;;;;;;12.50;1.33;;;;;;;19.93;67.80;94876.78;4375797;32;20189;-61
2022/08/17 05:10:17;;;;;;;1.80;1.13;;;;;;;19.93;66.46;94869.47;4375988;32;20236;-60
2022/08/17 05:12:43;;;;;;;1.20;1.20;;;;;;;20.03;67.58;94871.50;4375627;32;20247;-61
2022/08/17 05:15:14;;;;;;;1.10;1.10;;;;;;;20.00;68.09;94871.47;4396576;32;20310;-60
2022/08/17 05:17:41;;;;;;;0.73;0.73;;;;;;;20.13;67.33;94870.13;4378419;32;20297;-61
2022/08/17 05:20:07;;;;;;;0.93;0.93;;;;;;;20.23;67.44;94869.47;4375072;32;20227;-61
2022/08/17 05:22:33;;;;;;;1.37;1.27;;;;;;;20.29;67.70;94868.00;4369906;32;20181;-61
2022/08/17 05:24:58;;;;;;;0.97;0.97;;;;;;;20.17;66.53;94884.38;4378536;32;20195;-61
2022/08/17 05:27:23;;;;;;;1.47;1.47;;;;;;;20.05;66.70;94881.94;4383320;32;20188;-61
2022/08/17 05:29:49;;;;;;;1.23;1.23;;;;;;;19.98;66.81;94871.03;4381889;32;20219;-61
2022/08/17 05:32:14;;;;;;;1.30;1.23;;;;;;;19.97;68.41;94878.34;4387469;32;20184;-60
2022/08/17 05:34:39;;;;;;;1.17;1.17;;;;;;;19.87;67.52;94879.00;4387402;32;20184;-60
2022/08/17 05:37:05;;;;;;;1.03;1.03;;;;;;;19.89;67.22;94882.88;4389330;32;20250;-60
2022/08/17 05:39:30;;;;;;;1.00;1.00;;;;;;;19.94;68.73;94883.72;4382261;32;20191;-60
2022/08/17 05:41:56;;;;;;;1.00;1.00;;;;;;;20.09;67.78;94880.06;4384051;32;20224;-60
2022/08/17 05:44:21;;;;;;;1.53;1.47;;;;;;;20.17;66.80;94877.09;4384619;32;20181;-61
2022/08/17 05:46:50;;;;;;;1.07;1.03;;;;;;;20.05;68.24;94880.00;4385161;32;20198;-60
2022/08/17 05:49:21;;;;;;;0.90;0.90;;;;;;;20.14;67.39;94877.84;4373740;32;20214;-61
2022/08/17 05:52:14;;;;;;;1.90;1.67;;;;;;;20.12;67.16;94876.66;4381076;32;20213;-60
2022/08/17 05:55:02;;;;;;;2.23;1.23;;;;;;;20.22;68.47;94879.47;4375932;32;20234;-60
2022/08/17 05:57:40;;;;;;;0.90;0.90;;;;;;;20.45;67.42;94887.47;4374842;32;20185;-61
2022/08/17 06:00:30;;;;;;;4.27;1.73;;;;;;;20.52;67.00;94887.56;4370860;32;20235;-61
2022/08/17 06:03:09;;;;;;;1.40;1.30;;;;;;;20.48;67.32;94892.16;4373723;32;20201;-61
2022/08/17 06:05:50;;;;;;;1.13;1.13;;;;;;;20.58;66.64;94893.41;4370492;32;20196;-60
2022/08/17 06:08:28;;;;;;;1.03;1.03;;;;;;;20.54;67.10;94890.69;4382375;32;20184;-60
2022/08/17 06:10:59;;;;;;;1.37;1.30;;;;;;;20.57;66.72;94891.88;4382011;32;20187;-61
2022/08/17 06:14:03;;;;;;;1.43;1.23;;;;;;;20.67;66.47;94893.13;4374133;32;20186;-61
2022/08/17 06:16:35;;;;;;;1.10;1.10;;;;;;;20.67;66.10;94895.81;4378152;32;20188;-61
2022/08/17 06:19:29;;;;;;;3.00;1.20;;;;;;;20.76;66.25;94907.09;4370227;32;20239;-61
2022/08/17 06:21:55;;;;;;;3.40;1.43;;;;;;;20.75;66.33;94910.94;4376975;32;20196;-61
2022/08/17 06:24:39;;;;;;;0.97;0.97;;;;;;;20.78;66.53;94915.59;4374975;32;20200;-62
2022/08/17 06:27:45;;;;;;;0.90;0.90;;;;;;;20.88;66.21;94913.00;4394181;32;20192;-61
2022/08/17 06:30:12;;;;;;;1.37;1.10;;;;;;;20.99;66.39;94910.41;4374056;32;20197;-61
2022/08/17 06:32:43;;;;;;;6.53;1.20;;;;;;;21.03;66.07;94908.53;4375647;32;20192;-61
2022/08/17 06:35:12;;;;;;;1.70;1.60;;;;;;;21.08;65.37;94913.59;4375043;32;20252;-61
2022/08/17 06:38:03;;;;;;;1.10;1.10;;;;;;;21.10;63.73;94916.72;4380822;32;20207;-61
2022/08/17 06:40:44;;;;;;;0.70;0.70;;;;;;;21.20;64.05;94921.47;4373450;32;20192;-61
2022/08/17 06:43:42;;;;;;;1.93;1.33;;;;;;;21.35;62.85;94927.00;4365878;32;20189;-61
2022/08/17 06:46:07;;;;;;;1.20;1.20;;;;;;;21.50;63.02;94926.75;4371448;32;20185;-62
2022/08/17 06:48:48;;;;;;;0.63;0.63;;;;;;;21.70;62.22;94932.72;4382046;32;20204;-61
2022/08/17 06:51:22;;;;;;;1.40;1.40;;;;;;;21.74;61.63;94930.81;4372801;32;20180;-61
2022/08/17 06:54:39;;;;;;;1.10;1.10;;;;;;;21.76;62.26;94928.53;4676626;27;20188;-61
2022/08/17 06:57:24;;;;;;;3.77;2.00;;;;;;;21.86;62.75;94932.44;4299469;32;20209;-60
2022/08/17 07:00:15;;;;;;;1.10;1.10;;;;;;;21.91;63.07;94937.50;4311060;32;20197;-60
2022/08/17 07:03:01;;;;;;;1.20;1.20;;;;;;;21.91;62.42;94940.19;4359244;32;20212;-62
2022/08/17 07:05:36;;;;;;;0.77;0.77;;;;;;;22.01;62.14;94939.56;4368947;32;20192;-61
2022/08/17 07:08:28;;;;;;;0.97;0.97;;;;;;;22.07;61.62;94934.53;4348083;32;20278;-61
2022/08/17 07:10:59;;;;;;;3.60;1.23;;;;;;;22.19;62.20;94942.38;4357921;32;20208;-60
2022/08/17 07:14:01;;;;;;;1.33;1.33;;;;;;;22.23;61.39;94949.34;4372364;32;20188;-63
2022/08/17 07:16:45;;;;;;;1.50;1.40;;;;;;;22.28;61.57;94945.50;4319845;32;20291;-61
2022/08/17 07:19:14;;;;;;;0.97;0.97;;;;;;;22.31;60.81;94960.19;4293933;32;20193;-63
2022/08/17 07:22:29;;;;;;;1.00;1.00;;;;;;;22.37;60.78;94964.88;4342225;32;20267;-63
2022/08/17 07:25:04;;;;;;;1.30;1.30;;;;;;;22.45;60.14;94955.63;4340745;32;20236;-62
2022/08/17 07:27:44;;;;;;;1.77;1.67;;;;;;;22.55;60.03;94959.56;4345325;32;20248;-62
2022/08/17 07:30:38;;;;;;;2.30;0.77;;;;;;;22.59;59.89;94960.34;4316047;32;20208;-63
2022/08/17 07:33:22;;;;;;;1.60;1.50;;;;;;;22.60;59.44;94972.72;4317957;32;20188;-61
2022/08/17 07:35:49;;;;;;;1.10;1.10;;;;;;;22.68;59.64;94965.41;4329093;32;20243;-62
2022/08/17 07:38:27;;;;;;;2.03;1.93;;;;;;;22.74;59.13;94969.31;4356427;32;20232;-63
2022/08/17 07:40:56;;;;;;;0.83;0.83;;;;;;;22.75;58.75;94965.44;4329965;32;20190;-62
2022/08/17 07:43:25;;;;;;;1.60;1.50;;;;;;;22.83;59.28;94969.78;4359117;32;20199;-62
2022/08/17 07:49:12;;;;;;;1.07;1.07;;;;;;;22.83;58.58;94978.66;4313272;32;20294;-62
2022/08/17 07:51:45;;;;;;;1.73;1.63;;;;;;;22.88;58.61;94985.63;4356369;32;20184;-61
2022/08/17 07:54:32;;;;;;;1.03;0.90;;;;;;;22.92;57.88;94981.00;4339451;32;20231;-62
2022/08/17 07:57:30;;;;;;;0.83;0.83;;;;;;;22.93;58.80;94991.44;4329701;32;20288;-61
2022/08/17 08:00:08;;;;;;;0.70;0.70;;;;;;;23.01;57.44;94992.28;4325419;32;20310;-61
2022/08/17 08:02:42;;;;;;;1.53;1.43;;;;;;;23.05;57.20;94993.06;4320206;32;20206;-60
2022/08/17 08:05:24;;;;;;;0.70;0.70;;;;;;;23.12;56.24;94990.38;4316347;32;20241;-61
2022/08/17 08:07:54;;;;;;;0.70;0.70;;;;;;;23.22;55.21;94986.16;4343656;32;20201;-61
2022/08/17 08:10:42;;;;;;;0.50;0.50;;;;;;;23.25;55.70;94988.88;4327855;32;20204;-61
2022/08/17 08:13:28;;;;;;;1.20;1.20;;;;;;;23.31;54.74;94990.03;4272315;32;20201;-61
2022/08/17 08:16:23;;;;;;;1.77;1.67;;;;;;;23.52;54.38;94980.44;4302367;32;20201;-62
2022/08/17 08:18:52;;;;;;;2.63;1.00;;;;;;;23.62;54.04;94979.69;4337438;32;20202;-62
2022/08/17 08:21:46;;;;;;;1.27;1.27;;;;;;;23.63;55.47;94979.31;4341862;32;20255;-61
2022/08/17 08:24:55;;;;;;;1.03;1.03;;;;;;;23.82;53.87;94980.88;4329171;32;20189;-62
2022/08/17 08:27:54;;;;;;;1.00;1.00;;;;;;;23.81;54.55;94978.53;4334404;32;20185;-62
2022/08/17 08:30:22;;;;;;;0.67;0.67;;;;;;;23.86;54.15;94981.66;4306493;32;20195;-62
2022/08/17 08:33:22;;;;;;;0.97;0.97;;;;;;;23.94;53.83;94985.91;4289605;32;20207;-61
2022/08/17 08:36:29;;;;;;;1.40;1.30;;;;;;;23.86;55.03;94984.38;4313025;33;20217;-62
2022/08/17 08:39:04;;;;;;;2.23;1.07;;;;;;;23.85;53.63;94969.25;4304128;33;20194;-62
2022/08/17 08:41:42;;;;;;;1.10;1.10;;;;;;;24.03;52.59;94965.78;4314132;33;20308;-62
2022/08/17 08:44:35;;;;;;;0.80;0.80;;;;;;;24.09;52.23;94967.72;4286969;33;20216;-61
2022/08/17 08:47:51;;;;;;;1.23;1.13;;;;;;;24.08;53.34;94970.81;4311626;33;20189;-61
2022/08/17 08:50:50;;;;;;;1.47;1.37;;;;;;;24.22;51.76;94962.66;4247174;33;20194;-62
2022/08/17 08:53:40;;;;;;;0.90;0.90;;;;;;;24.30;51.00;94973.16;4309709;33;20252;-61
2022/08/17 08:56:41;;;;;;;1.33;1.33;;;;;;;24.37;50.75;94977.00;4307132;33;20233;-62
2022/08/17 08:59:47;;;;;;;1.33;1.23;;;;;;;24.37;51.38;94966.91;4273365;33;20313;-62
2022/08/17 09:02:32;;;;;;;0.90;0.90;;;;;;;24.50;51.68;94959.16;4283652;33;20225;-63
2022/08/17 09:05:16;;;;;;;1.37;1.37;;;;;;;24.53;51.36;94959.12;4272397;33;20222;-62
2022/08/17 09:08:18;;;;;;;1.03;1.03;;;;;;;24.46;52.32;94958.38;4305323;32;20208;-64
2022/08/17 09:10:58;;;;;;;1.63;1.20;;;;;;;24.44;51.84;94961.50;4329166;32;20181;-63
2022/08/17 09:13:51;;;;;;;0.90;0.90;;;;;;;24.43;52.13;94959.94;4318506;32;20181;-63
2022/08/17 09:17:07;;;;;;;1.27;1.27;;;;;;;24.45;51.72;94962.28;4329789;32;20204;-62
2022/08/17 09:19:42;;;;;;;1.30;1.30;;;;;;;24.63;51.18;94965.72;4327656;32;20201;-62
2022/08/17 09:22:30;;;;;;;1.10;1.10;;;;;;;24.64;51.86;94970.75;4324918;33;20216;-62
2022/08/17 09:25:25;;;;;;;2.10;2.00;;;;;;;24.65;52.11;94977.72;4319662;33;20231;-62
2022/08/17 09:28:02;;;;;;;3.50;2.20;;;;;;;24.64;52.37;94965.31;4332203;33;20265;-62
2022/08/17 09:30:54;;;;;;;1.30;1.23;;;;;;;24.72;51.18;94965.31;4340328;32;20311;-62
2022/08/17 09:33:25;;;;;;;1.53;0.97;;;;;;;24.76;51.39;94952.47;4322101;32;20244;-62
2022/08/17 09:36:33;;;;;;;1.77;1.67;;;;;;;24.83;51.38;94955.16;4323999;32;20246;-62
2022/08/17 09:39:33;;;;;;;1.20;1.20;;;;;;;25.03;49.55;94961.72;4320529;32;21920;-61
2022/08/17 09:42:29;;;;;;;1.30;1.20;;;;;;;25.20;48.79;94966.28;4298973;32;20190;-62
2022/08/17 09:45:20;;;;;;;1.13;1.13;;;;;;;25.24;48.24;94953.47;4299211;32;20198;-61
2022/08/17 09:48:22;;;;;;;0.97;0.97;;;;;;;25.32;47.98;94959.62;4305249;32;20301;-61
2022/08/17 09:51:12;;;;;;;2.87;2.70;;;;;;;25.43;47.31;94956.84;4311830;32;20228;-62
2022/08/17 09:53:39;;;;;;;3.73;3.43;;;;;;;25.26;48.38;94956.56;4289789;32;20174;-62
2022/08/17 09:56:47;;;;;;;1.57;1.50;;;;;;;25.29;47.89;94958.47;4322026;32;20201;-61
2022/08/17 09:59:39;;;;;;;3.53;3.10;;;;;;;25.30;49.11;94956.53;4328617;32;20222;-61
2022/08/17 10:02:49;;;;;;;1.20;1.10;;;;;;;25.33;48.37;94955.75;4290885;32;20193;-62
2022/08/17 10:05:36;;;;;;;2.17;2.07;;;;;;;25.52;47.72;94959.91;4300200;32;20207;-62
2022/08/17 10:08:28;;;;;;;2.67;2.37;;;;;;;25.65;47.85;94963.72;4335487;32;20193;-61
2022/08/17 10:14:54;;;;;;;3.80;3.60;;;;;;;25.61;47.71;94960.22;4343177;32;20252;-61
2022/08/17 10:18:06;;;;;;;7.27;3.87;;;;;;;25.60;48.20;94972.25;4327701;32;20224;-61
2022/08/17 10:27:10;;;;;;;1.40;1.40;;;;;;;25.92;46.82;94958.47;4298457;32;20235;-60
2022/08/17 10:29:44;;;;;;;1.53;1.53;;;;;;;26.14;45.59;94962.56;4304787;32;20192;-60
2022/08/17 10:32:24;;;;;;;1.17;1.17;;;;;;;26.37;45.44;94955.78;4294407;33;20333;-61
2022/08/17 10:34:59;;;;;;;1.53;1.53;;;;;;;26.21;45.77;94959.00;4329554;32;20219;-61
2022/08/17 10:37:48;;;;;;;1.40;1.40;;;;;;;26.18;45.65;94951.66;4332403;32;20233;-61
2022/08/17 10:40:56;;;;;;;1.60;1.50;;;;;;;26.15;45.75;94949.75;4346707;32;20193;-61
2022/08/17 10:44:01;;;;;;;1.03;1.03;;;;;;;26.05;46.19;94951.38;4319609;32;20208;-60
2022/08/17 10:47:05;;;;;;;0.70;0.70;;;;;;;26.39;44.49;94948.78;4295145;32;20256;-60
2022/08/17 10:49:33;;;;;;;0.90;0.90;;;;;;;26.60;43.51;94956.69;4312823;32;20217;-61
2022/08/17 10:52:25;;;;;;;1.37;1.37;;;;;;;26.53;43.82;94964.16;4329043;32;20268;-60
2022/08/17 10:54:55;;;;;;;0.87;0.87;;;;;;;26.43;44.08;94962.31;4339331;32;20201;-61
2022/08/17 10:57:33;;;;;;;0.83;0.83;;;;;;;26.43;44.20;94963.09;4314796;32;20249;-61
2022/08/17 11:00:31;;;;;;;0.90;0.90;;;;;;;26.35;44.90;94967.06;4338442;32;20236;-60
2022/08/17 11:02:59;;;;;;;0.87;0.87;;;;;;;26.23;45.62;94962.84;4327382;32;20267;-60
2022/08/17 11:05:45;;;;;;;1.00;1.00;;;;;;;26.17;45.87;94964.50;4346829;32;20197;-61
2022/08/17 11:08:36;;;;;;;1.20;1.20;;;;;;;26.26;45.53;94956.63;4344699;32;20213;-62
2022/08/17 11:11:34;;;;;;;0.60;0.60;;;;;;;26.24;44.94;94961.69;4360598;32;20211;-61
2022/08/17 11:14:41;;;;;;;1.00;0.97;;;;;;;26.50;43.75;94965.75;4350145;32;20320;-60
2022/08/17 11:17:34;;;;;;;5.40;0.73;;;;;;;26.54;43.48;94966.50;4357748;32;20280;-60
2022/08/17 11:20:24;;;;;;;0.80;0.80;;;;;;;26.64;43.17;94965.59;4325798;32;20271;-60
2022/08/17 11:22:56;;;;;;;0.50;0.50;;;;;;;26.74;41.86;94963.94;4336817;32;20205;-61
2022/08/17 11:25:50;;;;;;;1.23;1.23;;;;;;;26.82;42.66;94964.63;4350951;32;20208;-61
2022/08/17 11:28:22;;;;;;;1.20;1.20;;;;;;;26.77;42.56;94967.81;4353272;32;20208;-61
2022/08/17 11:31:13;;;;;;;1.40;1.33;;;;;;;26.69;43.35;94961.66;4357249;32;20248;-61
2022/08/17 11:33:54;;;;;;;1.10;1.10;;;;;;;26.63;43.48;94963.28;4360437;32;20260;-61
2022/08/17 11:37:13;;;;;;;0.70;0.70;;;;;;;26.59;44.26;94960.63;4349439;32;20192;-61
2022/08/17 11:39:51;;;;;;;0.83;0.83;;;;;;;26.50;44.59;94960.31;4297944;33;20228;-61
2022/08/17 11:42:29;;;;;;;1.10;1.10;;;;;;;26.60;44.44;94956.69;4293671;32;20208;-61
2022/08/17 11:45:33;;;;;;;0.80;0.70;;;;;;;26.66;44.26;94951.56;4348487;32;20204;-60
2022/08/17 11:51:43;;;;;;;3.33;1.13;;;;;;;26.96;43.18;94953.59;4339737;32;20258;-60
2022/08/17 11:54:36;;;;;;;0.77;0.77;;;;;;;26.88;43.48;94949.38;4364175;32;20236;-61
2022/08/17 11:57:29;;;;;;;1.17;1.17;;;;;;;26.78;44.34;94958.47;4333515;32;20290;-61
2022/08/17 12:00:15;;;;;;;1.40;1.40;;;;;;;26.77;43.95;94963.13;4347771;32;20207;-61
2022/08/17 12:02:44;;;;;;;1.43;1.33;;;;;;;26.81;43.26;94974.00;4312206;32;20201;-62
2022/08/17 12:05:12;;;;;;;0.73;0.73;;;;;;;26.85;43.13;94974.69;4313626;32;20205;-61
2022/08/17 12:08:23;;;;;;;1.70;1.60;;;;;;;26.83;44.03;94971.59;4344619;32;20205;-61
2022/08/17 12:11:02;;;;;;;1.40;1.40;;;;;;;26.79;43.68;94971.69;4309615;32;20215;-61
2022/08/17 12:13:31;;;;;;;0.90;0.90;;;;;;;26.86;43.01;94965.34;4346884;32;20259;-61
2022/08/17 12:16:00;;;;;;;0.50;0.50;;;;;;;26.80;44.06;94964.28;4347249;32;20286;-61
2022/08/17 12:18:36;;;;;;;3.10;1.70;;;;;;;26.83;44.27;94968.88;4338126;32;20248;-61
2022/08/17 12:21:20;;;;;;;1.07;1.07;;;;;;;26.79;44.27;94960.78;4318315;32;20244;-61
2022/08/17 12:24:21;;;;;;;1.63;1.53;;;;;;;27.03;42.98;94957.00;4348349;32;20279;-62
2022/08/17 12:27:03;;;;;;;1.37;1.37;;;;;;;27.25;42.77;94960.22;4335354;32;20290;-61
2022/08/17 12:29:30;;;;;;;1.77;1.63;;;;;;;27.37;41.59;94965.13;4356034;32;20237;-61
2022/08/17 12:32:00;;;;;;;1.27;1.23;;;;;;;27.43;42.02;94956.50;4342275;32;20197;-61
2022/08/17 12:34:41;;;;;;;1.30;1.30;;;;;;;27.37;41.87;94965.13;4310611;32;20263;-61
2022/08/17 12:37:21;;;;;;;0.73;0.73;;;;;;;27.31;41.40;94960.53;4329343;32;20272;-61
2022/08/17 12:39:55;;;;;;;0.80;0.80;;;;;;;27.25;41.56;94949.31;4325671;32;20196;-61
2022/08/17 12:42:25;;;;;;;1.30;1.30;;;;;;;27.20;42.25;94941.63;4352510;32;20232;-60
2022/08/17 12:44:50;;;;;;;1.13;1.13;;;;;;;27.26;41.36;94947.37;4342072;32;20193;-60
2022/08/17 12:47:21;;;;;;;1.57;1.50;;;;;;;27.50;41.24;94935.34;4334664;32;20184;-60
2022/08/17 12:49:51;;;;;;;0.90;0.90;;;;;;;27.55;41.32;94934.91;4346882;32;20212;-60
2022/08/17 12:52:19;;;;;;;0.90;0.90;;;;;;;27.62;41.23;94934.84;4339612;32;20244;-60